Terminal Aerodrome Forecast
Issued by NWS Omaha/Valley, NE

Home | Current Version | Previous Version | Graphics & Text | Print | Product List | Glossary On
Versions: 1 2 3 4 5 6 7 8 9 10 11 12 13 14 15 16 17 18 19 20 21 22 23 24 25 26 27 28 29 30 31 32 33 34 35 36 37 38 39 40 41 42 43 44 45 46
000
FTUS43 KOAX 250745 AAA
TAFOFK
TAF AMD
KOFK 250745Z 2508/2606 34010KT P6SM VCSH SCT025 BKN100
     FM251100 36010KT P6SM VCSH SCT020 BKN050
      TEMPO 2511/2515 5SM SHRA OVC020
     FM251500 01013KT 6SM SHRA BKN010 OVC080
     FM251800 36012KT 4SM -SHRA BR BKN010 OVC020
     FM252000 35012KT 2SM -SHRA BR BKN008 OVC025
     FM260000 34015KT P6SM BKN008 OVC015=

USA.gov is the U.S. government's official web portal to all federal, state and local government web resources and services.